Terminal Aerodrome Forecast
Issued by NWS

Home | Current Version | Previous Version | Text Only | Print | Product List | Glossary On
Versions: 1 2 3 4 5 6 7 8 9 10 11 12
000
FTUS46 KSGX 232338
TAFSNA
TAF
KSNA 232338Z 2400/2424 22011KT P6SM FEW050
     FM240400 VRB04KT P6SM BKN025
     FM241000 VRB04KT P6SM VCSH SCT025 BKN035
     FM241800 21009KT P6SM SCT035=

USA.gov is the U.S. government's official web portal to all federal, state and local government web resources and services.